Terminal Aerodrome Forecast
Issued by NWS Wilmington, NC

Home | Current Version | Previous Version | Text Only | Print | Product List | Glossary On
Versions: 1 2 3 4 5 6 7 8 9 10 11 12 13 14 15
633
FTUS42 KILM 131720
TAFMYR
TAF
KMYR 131720Z 1318/1418 35015G24KT P6SM SKC
     FM132200 34011KT P6SM SKC
     FM140000 VRB04KT P6SM SKC
     FM141500 04008KT P6SM SCT120=

USA.gov is the U.S. government's official web portal to all federal, state and local government web resources and services.